createdAt,value
2024-03-06T00:00:57.531Z,94627.00
2024-03-06T00:01:57.688Z,94627.00
2024-03-06T00:02:57.627Z,94630.00
2024-03-06T00:03:57.657Z,94630.00
2024-03-06T00:04:57.632Z,94629.00
2024-03-06T00:05:57.571Z,94630.00
2024-03-06T00:06:57.590Z,94630.00
2024-03-06T00:07:57.578Z,94630.00
2024-03-06T00:08:57.538Z,94629.00
2024-03-06T00:09:57.520Z,94630.00
2024-03-06T00:10:57.554Z,94630.00
2024-03-06T00:11:57.671Z,94634.00
2024-03-06T00:12:57.546Z,94632.00
2024-03-06T00:13:57.523Z,94630.00
2024-03-06T00:14:57.561Z,94632.00
2024-03-06T00:15:57.553Z,94632.00
2024-03-06T00:16:57.628Z,94633.00
2024-03-06T00:17:57.559Z,94632.00
2024-03-06T00:18:57.557Z,94633.00
2024-03-06T00:19:57.610Z,94634.00
2024-03-06T00:20:57.527Z,94634.00
2024-03-06T00:21:57.547Z,94638.00
2024-03-06T00:22:57.651Z,94638.00
2024-03-06T00:23:57.556Z,94638.00
2024-03-06T00:24:57.593Z,94640.00
2024-03-06T00:25:57.632Z,94639.00
2024-03-06T00:26:57.585Z,94639.00
2024-03-06T00:27:57.560Z,94636.00
2024-03-06T00:28:57.657Z,94641.00
2024-03-06T00:29:57.634Z,94638.00
2024-03-06T00:30:57.580Z,94638.00
2024-03-06T00:31:57.643Z,94640.00
2024-03-06T00:32:57.664Z,94641.00
2024-03-06T00:33:57.569Z,94645.00
2024-03-06T00:34:57.600Z,94645.00
2024-03-06T00:35:57.593Z,94647.00
2024-03-06T00:36:57.627Z,94647.00
2024-03-06T00:37:57.621Z,94646.00
2024-03-06T00:38:57.548Z,94648.00
2024-03-06T00:39:57.558Z,94646.00
2024-03-06T00:40:57.613Z,94650.00
2024-03-06T00:41:57.622Z,94650.00
2024-03-06T00:42:57.618Z,94653.00
2024-03-06T00:43:58.180Z,94651.00
2024-03-06T00:44:57.589Z,94653.00
2024-03-06T00:45:57.631Z,94653.00
2024-03-06T00:46:57.619Z,94658.00
2024-03-06T00:47:57.585Z,94657.00
2024-03-06T00:48:57.713Z,94659.00
2024-03-06T00:49:57.705Z,94659.00
2024-03-06T00:50:57.577Z,94660.00
2024-03-06T00:51:57.683Z,94662.00
2024-03-06T00:52:57.678Z,94660.00
2024-03-06T00:53:57.598Z,94661.00
2024-03-06T00:54:57.618Z,94659.00
2024-03-06T00:55:57.620Z,94659.00
2024-03-06T00:56:57.625Z,94658.00
2024-03-06T00:57:57.711Z,94658.00
2024-03-06T00:58:57.595Z,94656.00
2024-03-06T00:59:57.625Z,94659.00
2024-03-06T01:00:57.659Z,94659.00
2024-03-06T01:01:57.773Z,94657.00
2024-03-06T01:02:57.657Z,94657.00
2024-03-06T01:03:57.613Z,94655.00
2024-03-06T01:04:57.662Z,94655.00
2024-03-06T01:05:57.625Z,94660.00
2024-03-06T01:06:57.722Z,94657.00
2024-03-06T01:07:57.658Z,94659.00
2024-03-06T01:08:57.612Z,94660.00
2024-03-06T01:09:57.607Z,94661.00
2024-03-06T01:10:57.634Z,94663.00
2024-03-06T01:11:57.707Z,94663.00
2024-03-06T01:12:57.610Z,94660.00
2024-03-06T01:13:57.768Z,94660.00
2024-03-06T01:14:57.644Z,94661.00
2024-03-06T01:15:57.733Z,94662.00
2024-03-06T01:16:57.717Z,94662.00
2024-03-06T01:17:57.763Z,94661.00
2024-03-06T01:18:57.749Z,94664.00
2024-03-06T01:19:57.772Z,94664.00
2024-03-06T01:20:57.761Z,94662.00
2024-03-06T01:21:57.787Z,94665.00
2024-03-06T01:22:57.798Z,94664.00
2024-03-06T01:23:57.792Z,94663.00
2024-03-06T01:24:57.783Z,94664.00
2024-03-06T01:25:57.830Z,94664.00
2024-03-06T01:26:57.805Z,94661.00
2024-03-06T01:27:57.853Z,94662.00
2024-03-06T01:28:57.892Z,94661.00
2024-03-06T01:29:57.882Z,94663.00
2024-03-06T01:30:58.627Z,94665.00
2024-03-06T01:31:57.963Z,94663.00
2024-03-06T01:32:57.925Z,94665.00
2024-03-06T01:33:57.952Z,94667.00
2024-03-06T01:34:57.930Z,94667.00
2024-03-06T01:35:57.959Z,94666.00
2024-03-06T01:36:57.905Z,94667.00
2024-03-06T01:37:57.992Z,94669.00
2024-03-06T01:38:57.970Z,94669.00
2024-03-06T01:39:58.007Z,94668.00
2024-03-06T01:40:58.064Z,94668.00
2024-03-06T01:41:58.611Z,94669.00
2024-03-06T01:42:58.016Z,94669.00
2024-03-06T01:43:58.074Z,94670.00
2024-03-06T01:44:58.062Z,94671.00
2024-03-06T01:45:58.071Z,94671.00
2024-03-06T01:46:58.122Z,94670.00
2024-03-06T01:47:58.151Z,94668.00
2024-03-06T01:48:59.722Z,94672.00
2024-03-06T01:49:58.137Z,94670.00
2024-03-06T01:50:58.136Z,94670.00
2024-03-06T01:51:58.110Z,94670.00
2024-03-06T01:52:58.149Z,94669.00
2024-03-06T01:53:58.191Z,94669.00
2024-03-06T01:54:58.139Z,94666.00
2024-03-06T01:55:58.147Z,94666.00
2024-03-06T01:56:58.142Z,94665.00
2024-03-06T01:57:58.154Z,94664.00
2024-03-06T01:58:58.689Z,94663.00
2024-03-06T01:59:58.129Z,94659.00
2024-03-06T02:00:58.140Z,94659.00
2024-03-06T02:01:58.193Z,94660.00
2024-03-06T02:02:58.142Z,94658.00
2024-03-06T02:03:58.153Z,94656.00
2024-03-06T02:04:58.179Z,94656.00
2024-03-06T02:05:58.136Z,94657.00
2024-03-06T02:06:58.141Z,94655.00
2024-03-06T02:07:58.224Z,94655.00
2024-03-06T02:08:58.188Z,94654.00
2024-03-06T02:09:58.128Z,94656.00
2024-03-06T02:10:58.168Z,94655.00
2024-03-06T02:11:58.164Z,94656.00
2024-03-06T02:12:58.150Z,94655.00
2024-03-06T02:13:58.252Z,94655.00
2024-03-06T02:14:58.209Z,94655.00
2024-03-06T02:15:58.185Z,94654.00
2024-03-06T02:16:58.238Z,94653.00
2024-03-06T02:17:58.222Z,94652.00
2024-03-06T02:18:58.257Z,94652.00
2024-03-06T02:19:58.272Z,94655.00
2024-03-06T02:20:58.169Z,94655.00
2024-03-06T02:21:58.171Z,94656.00
2024-03-06T02:22:58.253Z,94657.00
2024-03-06T02:23:58.198Z,94657.00
2024-03-06T02:24:58.189Z,94656.00
2024-03-06T02:25:58.251Z,94654.00
2024-03-06T02:26:58.218Z,94655.00
2024-03-06T02:27:58.155Z,94654.00
2024-03-06T02:28:58.174Z,94656.00
2024-03-06T02:29:58.175Z,94659.00
2024-03-06T02:30:58.251Z,94659.00
2024-03-06T02:31:58.267Z,94659.00
2024-03-06T02:32:58.342Z,94660.00
2024-03-06T02:33:58.195Z,94659.00
2024-03-06T02:34:58.296Z,94659.00
2024-03-06T02:35:58.212Z,94657.00
2024-03-06T02:36:58.177Z,94656.00
2024-03-06T02:37:58.229Z,94656.00
2024-03-06T02:38:58.184Z,94652.00
2024-03-06T02:39:58.179Z,94649.00
2024-03-06T02:40:58.221Z,94649.00
2024-03-06T02:41:58.201Z,94646.00
2024-03-06T02:42:58.224Z,94644.00
2024-03-06T02:43:58.255Z,94643.00
2024-03-06T02:44:58.185Z,94640.00
2024-03-06T02:45:58.177Z,94640.00
2024-03-06T02:46:58.214Z,94643.00
2024-03-06T02:47:58.289Z,94644.00
2024-03-06T02:48:58.195Z,94647.00
2024-03-06T02:49:58.226Z,94650.00
2024-03-06T02:50:58.184Z,94651.00
2024-03-06T02:51:58.210Z,94652.00
2024-03-06T02:52:58.233Z,94655.00
2024-03-06T02:53:58.196Z,94654.00
2024-03-06T02:54:58.231Z,94656.00
2024-03-06T02:55:58.244Z,94657.00
2024-03-06T02:56:58.205Z,94656.00
2024-03-06T02:57:58.204Z,94660.00
2024-03-06T02:58:58.225Z,94660.00
2024-03-06T02:59:58.149Z,94660.00
2024-03-06T03:00:58.252Z,94663.00
2024-03-06T03:01:58.294Z,94664.00
2024-03-06T03:02:58.190Z,94666.00
2024-03-06T03:03:58.208Z,94667.00
2024-03-06T03:04:58.234Z,94667.00
2024-03-06T03:05:58.167Z,94669.00
2024-03-06T03:06:58.220Z,94668.00
2024-03-06T03:07:58.264Z,94669.00
2024-03-06T03:08:58.184Z,94669.00
2024-03-06T03:09:58.243Z,94670.00
2024-03-06T03:10:58.256Z,94673.00
2024-03-06T03:11:58.203Z,94670.00
2024-03-06T03:12:58.184Z,94672.00
2024-03-06T03:13:58.274Z,94673.00
2024-03-06T03:14:58.235Z,94671.00
2024-03-06T03:15:58.261Z,94673.00
2024-03-06T03:16:58.302Z,94672.00
2024-03-06T03:17:58.220Z,94672.00
2024-03-06T03:18:58.253Z,94674.00
2024-03-06T03:19:58.254Z,94674.00
2024-03-06T03:20:58.269Z,94674.00
2024-03-06T03:21:58.198Z,94673.00
2024-03-06T03:22:58.217Z,94674.00
2024-03-06T03:23:58.212Z,94675.00
2024-03-06T03:24:58.242Z,94673.00
2024-03-06T03:25:58.289Z,94671.00
2024-03-06T03:26:58.192Z,94669.00
2024-03-06T03:27:58.209Z,94668.00
2024-03-06T03:28:58.258Z,94665.00
2024-03-06T03:29:58.237Z,94666.00
2024-03-06T03:30:58.238Z,94666.00
2024-03-06T03:31:58.311Z,94667.00
2024-03-06T03:32:58.277Z,94667.00
2024-03-06T03:33:58.361Z,94669.00
2024-03-06T03:34:58.270Z,94669.00
2024-03-06T03:35:58.262Z,94669.00
2024-03-06T03:36:58.254Z,94668.00
2024-03-06T03:37:58.249Z,94667.00
2024-03-06T03:38:58.228Z,94665.00
2024-03-06T03:39:58.246Z,94665.00
2024-03-06T03:40:58.246Z,94664.00
2024-03-06T03:41:58.249Z,94666.00
2024-03-06T03:42:58.248Z,94666.00
2024-03-06T03:43:58.274Z,94667.00
2024-03-06T03:44:58.258Z,94668.00
2024-03-06T03:45:58.236Z,94665.00
2024-03-06T03:46:58.309Z,94664.00
2024-03-06T03:47:58.267Z,94662.00
2024-03-06T03:48:58.250Z,94663.00
2024-03-06T03:50:03.718Z,94661.00
2024-03-06T03:50:59.260Z,94659.00
2024-03-06T03:51:58.233Z,94662.00
2024-03-06T03:52:58.311Z,94660.00
2024-03-06T03:53:58.284Z,94659.00
2024-03-06T03:54:58.297Z,94658.00
2024-03-06T03:55:58.302Z,94659.00
2024-03-06T03:56:58.234Z,94656.00
2024-03-06T03:57:58.294Z,94659.00
2024-03-06T03:58:58.296Z,94657.00
2024-03-06T03:59:58.314Z,94657.00
2024-03-06T04:00:58.308Z,94656.00
2024-03-06T04:01:58.306Z,94659.00
2024-03-06T04:02:58.344Z,94661.00
2024-03-06T04:03:58.283Z,94663.00
2024-03-06T04:04:58.320Z,94665.00
2024-03-06T04:05:58.286Z,94665.00
2024-03-06T04:06:58.324Z,94664.00
2024-03-06T04:07:58.313Z,94664.00
2024-03-06T04:08:58.290Z,94664.00
2024-03-06T04:09:58.289Z,94666.00
2024-03-06T04:10:58.309Z,94666.00
2024-03-06T04:11:58.441Z,94666.00
2024-03-06T04:12:58.314Z,94667.00
2024-03-06T04:13:58.294Z,94665.00
2024-03-06T04:14:58.314Z,94666.00
2024-03-06T04:15:58.375Z,94669.00
2024-03-06T04:16:58.416Z,94672.00
2024-03-06T04:17:58.497Z,94674.00
2024-03-06T04:18:58.425Z,94679.00
2024-03-06T04:19:58.475Z,94679.00
2024-03-06T04:20:58.828Z,94680.00
2024-03-06T04:21:58.499Z,94680.00
2024-03-06T04:22:58.584Z,94683.00
2024-03-06T04:23:58.587Z,94682.00
2024-03-06T04:24:58.633Z,94681.00
2024-03-06T04:25:58.742Z,94683.00
2024-03-06T04:26:58.708Z,94685.00
2024-03-06T04:27:58.744Z,94687.00
2024-03-06T04:28:58.827Z,94685.00
2024-03-06T04:29:58.827Z,94688.00
2024-03-06T04:30:58.891Z,94689.00
2024-03-06T04:31:58.958Z,94689.00
2024-03-06T04:32:58.999Z,94690.00
2024-03-06T04:34:06.242Z,94691.00
2024-03-06T04:35:06.230Z,94692.00
2024-03-06T04:36:06.251Z,94693.00
2024-03-06T04:37:06.226Z,94696.00
2024-03-06T04:38:06.259Z,94694.00
2024-03-06T04:39:06.276Z,94691.00
2024-03-06T04:40:06.202Z,94696.00
2024-03-06T04:41:06.291Z,94693.00
2024-03-06T04:42:06.280Z,94693.00
2024-03-06T04:43:06.215Z,94695.00
2024-03-06T04:44:06.272Z,94697.00
2024-03-06T04:45:06.227Z,94697.00
2024-03-06T04:46:06.232Z,94699.00
2024-03-06T04:47:06.342Z,94701.00
2024-03-06T04:48:06.295Z,94702.00
2024-03-06T04:49:06.225Z,94705.00
2024-03-06T04:50:06.310Z,94708.00
2024-03-06T04:51:06.244Z,94707.00
2024-03-06T04:52:06.273Z,94706.00
2024-03-06T04:53:06.291Z,94707.00
2024-03-06T04:54:06.240Z,94708.00
2024-03-06T04:55:06.252Z,94711.00
2024-03-06T04:56:06.247Z,94710.00
2024-03-06T04:57:06.259Z,94710.00
2024-03-06T04:58:06.278Z,94708.00
2024-03-06T04:59:06.253Z,94708.00
2024-03-06T05:00:06.293Z,94707.00
2024-03-06T05:01:06.321Z,94709.00
2024-03-06T05:02:06.394Z,94707.00
2024-03-06T05:58:07.566Z,94741.00
2024-03-06T05:59:06.761Z,94747.00
2024-03-06T06:00:06.760Z,94751.00
2024-03-06T06:01:06.784Z,94751.00
2024-03-06T06:02:06.763Z,94756.00
2024-03-06T06:03:06.730Z,94753.00
2024-03-06T06:04:08.319Z,94756.00
2024-03-06T06:05:21.557Z,94754.00
2024-03-06T06:06:07.790Z,94752.00
2024-03-06T06:07:06.754Z,94750.00
2024-03-06T06:08:06.773Z,94750.00
2024-03-06T06:09:06.765Z,94747.00
2024-03-06T06:10:06.773Z,94745.00
2024-03-06T06:11:06.846Z,94745.00
2024-03-06T06:12:06.778Z,94746.00
2024-03-06T06:13:06.800Z,94746.00
2024-03-06T06:14:06.833Z,94749.00
2024-03-06T06:15:06.812Z,94750.00
2024-03-06T06:16:06.752Z,94750.00
2024-03-06T06:17:06.924Z,94755.00
2024-03-06T06:18:06.876Z,94753.00
2024-03-06T06:19:06.940Z,94753.00
2024-03-06T06:20:07.064Z,94751.00
2024-03-06T06:21:07.038Z,94752.00
2024-03-06T06:22:07.090Z,94752.00
2024-03-06T06:23:07.207Z,94757.00
2024-03-06T06:24:07.210Z,94759.00
2024-03-06T06:25:07.272Z,94762.00
2024-03-06T06:26:07.341Z,94762.00
2024-03-06T06:27:07.341Z,94764.00
2024-03-06T06:28:07.404Z,94765.00
2024-03-06T06:29:07.468Z,94765.00
2024-03-06T06:30:08.280Z,94767.00
2024-03-06T06:31:07.556Z,94766.00
2024-03-06T06:32:07.592Z,94763.00
2024-03-06T06:33:07.732Z,94765.00
2024-03-06T06:34:07.754Z,94767.00
2024-03-06T06:35:07.804Z,94763.00
2024-03-06T06:36:07.871Z,94766.00
2024-03-06T06:37:07.908Z,94764.00
2024-03-06T06:38:08.009Z,94768.00
2024-03-06T06:39:08.038Z,94770.00
2024-03-06T06:40:08.320Z,94768.00
2024-03-06T06:41:08.246Z,94768.00
2024-03-06T06:42:10.038Z,94770.00
2024-03-06T06:43:08.221Z,94771.00
2024-03-06T06:44:08.407Z,94770.00
2024-03-06T06:45:08.456Z,94769.00
2024-03-06T06:46:08.341Z,94771.00
2024-03-06T06:47:08.581Z,94773.00
2024-03-06T06:48:08.376Z,94775.00
2024-03-06T06:49:08.418Z,94771.00
2024-03-06T06:50:08.462Z,94770.00
2024-03-06T06:51:08.590Z,94773.00
2024-03-06T06:52:09.010Z,94776.00
2024-03-06T06:53:08.879Z,94774.00
2024-03-06T06:54:08.828Z,94780.00
2024-03-06T06:55:08.805Z,94776.00
2024-03-06T06:56:08.971Z,94779.00
2024-03-06T06:57:08.956Z,94776.00
2024-03-06T06:58:09.034Z,94780.00
2024-03-06T06:59:09.062Z,94780.00
2024-03-06T07:00:09.206Z,94785.00
2024-03-06T07:01:09.091Z,94785.00
2024-03-06T07:02:09.273Z,94788.00
2024-03-06T07:03:09.113Z,94792.00
2024-03-06T07:04:09.191Z,94788.00
2024-03-06T07:05:09.192Z,94789.00
2024-03-06T07:06:09.153Z,94790.00
2024-03-06T07:07:09.443Z,94787.00
2024-03-06T07:08:09.241Z,94786.00
2024-03-06T07:09:09.951Z,94786.00
2024-03-06T07:10:11.103Z,94787.00
2024-03-06T07:11:09.374Z,94786.00
2024-03-06T07:12:09.240Z,94789.00
2024-03-06T07:13:09.646Z,94788.00
2024-03-06T07:14:09.299Z,94787.00
2024-03-06T07:15:09.414Z,94788.00
2024-03-06T07:16:09.511Z,94789.00
2024-03-06T07:17:09.346Z,94790.00
2024-03-06T07:18:09.508Z,94790.00
2024-03-06T07:19:09.391Z,94789.00
2024-03-06T07:20:09.448Z,94788.00
2024-03-06T07:21:09.397Z,94789.00
2024-03-06T07:22:09.987Z,94788.00
2024-03-06T07:23:09.460Z,94790.00
2024-03-06T07:24:09.468Z,94791.00
2024-03-06T07:25:09.645Z,94792.00
2024-03-06T07:26:09.750Z,94807.00
2024-03-06T07:27:09.646Z,94793.00
2024-03-06T07:28:09.661Z,94795.00
2024-03-06T07:29:09.810Z,94795.00
2024-03-06T07:30:12.558Z,94798.00
2024-03-06T07:31:10.121Z,94804.00
2024-03-06T07:32:09.753Z,94801.00
2024-03-06T07:33:10.879Z,94801.00
2024-03-06T07:34:09.673Z,94801.00
2024-03-06T07:35:09.752Z,94803.00
2024-03-06T07:36:09.750Z,94803.00
2024-03-06T07:37:10.481Z,94804.00
2024-03-06T07:38:09.915Z,94802.00
2024-03-06T07:39:09.689Z,94807.00
2024-03-06T07:40:09.682Z,94806.00
2024-03-06T07:41:10.495Z,94807.00
2024-03-06T07:42:09.706Z,94809.00
2024-03-06T07:43:11.953Z,94800.00
2024-03-06T07:44:09.761Z,94820.00
2024-03-06T07:45:09.728Z,94818.00
2024-03-06T07:46:09.721Z,94818.00
2024-03-06T07:47:09.836Z,94819.00
2024-03-06T07:48:09.988Z,94822.00
2024-03-06T07:49:09.813Z,94823.00
2024-03-06T07:50:09.922Z,94825.00
2024-03-06T07:51:09.934Z,94825.00
2024-03-06T07:52:10.542Z,94825.00
2024-03-06T07:53:10.563Z,94827.00
2024-03-06T07:54:10.036Z,94827.00
2024-03-06T07:55:10.065Z,94827.00
2024-03-06T07:56:10.337Z,94833.00
2024-03-06T07:57:11.105Z,94834.00
2024-03-06T07:58:10.279Z,94834.00
2024-03-06T07:59:10.277Z,94832.00
2024-03-06T08:00:10.526Z,94833.00
2024-03-06T08:01:10.471Z,94834.00
2024-03-06T08:02:10.555Z,94837.00
2024-03-06T08:03:10.512Z,94839.00
2024-03-06T08:04:11.442Z,94840.00
2024-03-06T08:05:10.755Z,94841.00
2024-03-06T08:06:10.683Z,94842.00
2024-03-06T08:07:11.137Z,94842.00
2024-03-06T08:08:10.783Z,94841.00
2024-03-06T08:09:13.577Z,94845.00
2024-03-06T08:10:10.784Z,94844.00
2024-03-06T08:11:11.132Z,94844.00
2024-03-06T08:12:10.952Z,94844.00
2024-03-06T08:13:10.919Z,94844.00
2024-03-06T08:14:10.884Z,94845.00
2024-03-06T08:15:10.930Z,94846.00
2024-03-06T08:16:11.341Z,94848.00
2024-03-06T08:17:12.705Z,94849.00
2024-03-06T08:18:11.140Z,94847.00
2024-03-06T08:19:10.870Z,94846.00
2024-03-06T08:20:10.887Z,94849.00
2024-03-06T08:21:11.449Z,94848.00
2024-03-06T08:22:10.868Z,94846.00
2024-03-06T08:23:12.707Z,94847.00
2024-03-06T08:24:10.865Z,94846.00
2024-03-06T08:25:10.867Z,94848.00
2024-03-06T08:26:11.614Z,94849.00
2024-03-06T08:27:10.865Z,94848.00
2024-03-06T08:28:10.961Z,94847.00
2024-03-06T08:29:12.024Z,94846.00
2024-03-06T08:30:11.028Z,94847.00
2024-03-06T08:31:11.457Z,94846.00
2024-03-06T08:32:11.182Z,94846.00
2024-03-06T08:33:11.460Z,94848.00
2024-03-06T08:34:11.294Z,94847.00
2024-03-06T08:35:11.291Z,94846.00
2024-03-06T08:36:12.025Z,94846.00
2024-03-06T08:37:11.493Z,94849.00
2024-03-06T08:38:11.455Z,94847.00
2024-03-06T08:39:12.123Z,94849.00
2024-03-06T08:40:11.589Z,94850.00
2024-03-06T08:41:13.916Z,94852.00
2024-03-06T08:42:11.696Z,94852.00
2024-03-06T08:43:11.828Z,94853.00
2024-03-06T08:44:12.327Z,94852.00
2024-03-06T08:45:11.681Z,94858.00
2024-03-06T08:46:11.822Z,94855.00
2024-03-06T08:47:12.249Z,94859.00
2024-03-06T08:48:13.682Z,94858.00
2024-03-06T08:49:11.868Z,94860.00
2024-03-06T08:50:12.072Z,94857.00
2024-03-06T08:51:12.154Z,94855.00
2024-03-06T08:52:12.037Z,94856.00
2024-03-06T08:53:13.139Z,94855.00
2024-03-06T08:54:14.848Z,94860.00
2024-03-06T08:55:13.121Z,94860.00
2024-03-06T08:56:12.211Z,94859.00
2024-03-06T08:57:12.252Z,94863.00
2024-03-06T08:58:12.059Z,94863.00
2024-03-06T08:59:12.093Z,94863.00
2024-03-06T09:00:12.882Z,94864.00
2024-03-06T09:01:12.167Z,94870.00
2024-03-06T09:02:12.080Z,94867.00
2024-03-06T09:03:12.101Z,94868.00
2024-03-06T09:04:12.428Z,94869.00
2024-03-06T09:05:13.241Z,94868.00
2024-03-06T09:06:12.121Z,94866.00
2024-03-06T09:07:12.066Z,94866.00
2024-03-06T09:08:15.175Z,94868.00
2024-03-06T09:09:13.105Z,94872.00
2024-03-06T09:10:12.511Z,94873.00
2024-03-06T09:11:14.055Z,94881.00
2024-03-06T09:12:12.539Z,94875.00
2024-03-06T09:13:12.517Z,94874.00
2024-03-06T09:14:12.048Z,94877.00
2024-03-06T09:15:12.137Z,94874.00
2024-03-06T09:16:12.221Z,94875.00
2024-03-06T09:17:14.009Z,94877.00
2024-03-06T09:18:12.612Z,94880.00
2024-03-06T09:19:13.960Z,94885.00
2024-03-06T09:20:13.567Z,94883.00
2024-03-06T09:21:18.972Z,94888.00
2024-03-06T09:22:13.033Z,94890.00
2024-03-06T09:23:12.536Z,94889.00
2024-03-06T09:24:12.102Z,94893.00
2024-03-06T09:25:12.488Z,94893.00
2024-03-06T09:26:12.232Z,94892.00
2024-03-06T09:27:12.529Z,94897.00
2024-03-06T09:28:12.113Z,94895.00
2024-03-06T09:29:12.226Z,94894.00
2024-03-06T09:30:12.143Z,94896.00
2024-03-06T09:31:12.086Z,94893.00
2024-03-06T09:32:12.532Z,94890.00
2024-03-06T09:33:12.325Z,94885.00
2024-03-06T09:34:12.106Z,94884.00
2024-03-06T09:35:12.137Z,94883.00
2024-03-06T09:36:12.118Z,94886.00
2024-03-06T09:37:12.513Z,94885.00
2024-03-06T09:38:12.145Z,94882.00
2024-03-06T09:39:12.121Z,94881.00
2024-03-06T09:40:12.111Z,94883.00
2024-03-06T09:41:13.116Z,94880.00
2024-03-06T09:42:13.126Z,94879.00
2024-03-06T09:43:20.619Z,94884.00
2024-03-06T09:44:12.228Z,94884.00
2024-03-06T09:45:15.020Z,94880.00
2024-03-06T09:46:12.122Z,94880.00
2024-03-06T09:48:24.403Z,94883.00
2024-03-06T09:49:24.395Z,94885.00
2024-03-06T09:50:26.935Z,94885.00
2024-03-06T09:51:29.284Z,94887.00
2024-03-06T09:52:24.052Z,94884.00
2024-03-06T09:53:24.310Z,94883.00
2024-03-06T09:54:25.647Z,94884.00
2024-03-06T09:55:25.245Z,94884.00
2024-03-06T09:56:24.130Z,94884.00
2024-03-06T09:57:24.180Z,94888.00
2024-03-06T09:58:25.674Z,94885.00
2024-03-06T09:59:24.259Z,94885.00
2024-03-06T10:00:24.197Z,94884.00
2024-03-06T10:01:25.297Z,94885.00
2024-03-06T10:02:26.252Z,94882.00
2024-03-06T10:03:24.209Z,94883.00
2024-03-06T10:04:24.224Z,94883.00
2024-03-06T10:05:24.383Z,94890.00
2024-03-06T10:06:25.272Z,94885.00
2024-03-06T10:07:27.541Z,94885.00
2024-03-06T10:08:25.655Z,94890.00
2024-03-06T10:09:24.320Z,94887.00
2024-03-06T10:10:25.390Z,94889.00
2024-03-06T10:11:24.443Z,94888.00
2024-03-06T10:12:25.381Z,94888.00
2024-03-06T10:13:24.350Z,94889.00
2024-03-06T10:14:26.549Z,94891.00
2024-03-06T10:15:24.338Z,94890.00
2024-03-06T10:16:24.454Z,94892.00
2024-03-06T10:17:25.673Z,94894.00
2024-03-06T10:18:24.348Z,94895.00
2024-03-06T10:19:24.378Z,94891.00
2024-03-06T10:20:26.774Z,94888.00
2024-03-06T10:21:24.401Z,94890.00
2024-03-06T10:22:24.676Z,94890.00
2024-03-06T10:23:25.245Z,94890.00
2024-03-06T10:24:24.401Z,94888.00
2024-03-06T10:25:24.549Z,94887.00
2024-03-06T10:26:24.747Z,94883.00
2024-03-06T10:27:24.448Z,94879.00
2024-03-06T10:28:24.783Z,94881.00
2024-03-06T10:29:24.919Z,94880.00
2024-03-06T10:30:25.288Z,94879.00
2024-03-06T10:31:24.618Z,94880.00
2024-03-06T10:32:24.409Z,94880.00
2024-03-06T10:33:24.878Z,94878.00
2024-03-06T10:34:24.695Z,94878.00
2024-03-06T10:35:24.549Z,94881.00
2024-03-06T10:36:24.462Z,94880.00
2024-03-06T10:37:24.389Z,94881.00
2024-03-06T10:38:24.410Z,94879.00
2024-03-06T10:39:24.417Z,94879.00
2024-03-06T10:40:24.386Z,94879.00
2024-03-06T10:41:24.389Z,94881.00
2024-03-06T10:42:24.369Z,94883.00
2024-03-06T10:43:24.724Z,94881.00
2024-03-06T10:44:24.512Z,94884.00
2024-03-06T10:45:24.480Z,94883.00
2024-03-06T10:46:25.188Z,94882.00
2024-03-06T10:47:24.486Z,94882.00
2024-03-06T10:48:24.449Z,94883.00
2024-03-06T10:49:24.685Z,94883.00
2024-03-06T10:50:25.354Z,94883.00
2024-03-06T10:51:24.915Z,94883.00
2024-03-06T10:52:24.424Z,94886.00
2024-03-06T10:53:26.189Z,94883.00
2024-03-06T10:54:24.746Z,94882.00
2024-03-06T10:55:24.521Z,94882.00
2024-03-06T10:56:24.549Z,94885.00
2024-03-06T10:57:24.696Z,94885.00
2024-03-06T10:58:24.632Z,94884.00
2024-03-06T10:59:25.238Z,94885.00
2024-03-06T11:00:24.682Z,94886.00
2024-03-06T11:01:24.784Z,94885.00
2024-03-06T11:02:24.955Z,94883.00
2024-03-06T11:03:24.814Z,94881.00
2024-03-06T11:04:24.837Z,94882.00
2024-03-06T11:05:25.278Z,94879.00
2024-03-06T11:06:25.277Z,94878.00
2024-03-06T11:07:24.918Z,94879.00
2024-03-06T11:08:25.063Z,94879.00
2024-03-06T11:09:24.978Z,94877.00
2024-03-06T11:10:25.305Z,94878.00
2024-03-06T11:11:25.933Z,94876.00
2024-03-06T11:12:25.243Z,94876.00
2024-03-06T11:13:25.865Z,94875.00
2024-03-06T11:14:25.341Z,94876.00
2024-03-06T11:15:25.405Z,94874.00
2024-03-06T11:17:42.226Z,94872.00
2024-03-06T11:18:42.144Z,94871.00
2024-03-06T11:19:42.820Z,94871.00
2024-03-06T11:20:41.843Z,94871.00
2024-03-06T11:21:42.083Z,94872.00
2024-03-06T11:22:41.884Z,94873.00
2024-03-06T11:23:42.013Z,94872.00
2024-03-06T11:24:41.818Z,94871.00
2024-03-06T11:25:42.117Z,94869.00
2024-03-06T11:26:43.136Z,94870.00
2024-03-06T11:27:41.935Z,94865.00
2024-03-06T11:28:42.062Z,94866.00
2024-03-06T11:29:41.846Z,94866.00
2024-03-06T11:30:42.614Z,94868.00
2024-03-06T11:31:41.951Z,94866.00
2024-03-06T11:32:43.004Z,94864.00
2024-03-06T11:33:42.513Z,94863.00
2024-03-06T11:34:42.036Z,94866.00
2024-03-06T11:35:42.113Z,94865.00
2024-03-06T11:36:42.118Z,94866.00
2024-03-06T11:37:42.121Z,94862.00
2024-03-06T11:38:42.364Z,94861.00
2024-03-06T11:39:42.701Z,94863.00
2024-03-06T11:40:42.236Z,94858.00
2024-03-06T11:41:42.334Z,94858.00
2024-03-06T11:42:42.468Z,94857.00
2024-03-06T11:43:42.322Z,94857.00
2024-03-06T11:44:42.337Z,94858.00
2024-03-06T11:45:42.483Z,94858.00
2024-03-06T11:46:42.474Z,94857.00
2024-03-06T11:47:43.524Z,94855.00
2024-03-06T11:48:43.125Z,94857.00
2024-03-06T11:49:42.616Z,94855.00
2024-03-06T11:50:42.732Z,94856.00
2024-03-06T11:51:42.907Z,94857.00
2024-03-06T11:52:43.042Z,94856.00
2024-03-06T11:53:42.869Z,94854.00
2024-03-06T11:54:43.047Z,94852.00
2024-03-06T11:55:42.965Z,94857.00
2024-03-06T11:56:43.197Z,94856.00
2024-03-06T11:57:43.500Z,94856.00
2024-03-06T11:58:43.944Z,94858.00
2024-03-06T11:59:43.291Z,94857.00
2024-03-06T12:00:43.231Z,94860.00
2024-03-06T12:01:43.206Z,94859.00
2024-03-06T12:02:43.256Z,94858.00
2024-03-06T12:03:43.297Z,94857.00
2024-03-06T12:04:43.643Z,94855.00
2024-03-06T12:05:43.312Z,94858.00
2024-03-06T12:06:43.699Z,94858.00
2024-03-06T12:07:43.308Z,94855.00
2024-03-06T12:08:43.745Z,94855.00
2024-03-06T12:09:44.298Z,94855.00
2024-03-06T12:10:43.452Z,94857.00
2024-03-06T12:11:43.693Z,94859.00
2024-03-06T12:12:43.485Z,94857.00
2024-03-06T12:13:43.681Z,94859.00
2024-03-06T12:14:45.454Z,94858.00
2024-03-06T12:16:06.206Z,94859.00
2024-03-06T12:16:43.500Z,94861.00
2024-03-06T12:17:43.576Z,94858.00
2024-03-06T12:18:44.022Z,94858.00
2024-03-06T12:19:43.540Z,94857.00
2024-03-06T12:20:43.615Z,94854.00
2024-03-06T12:21:43.928Z,94857.00
2024-03-06T12:22:43.779Z,94856.00
2024-03-06T12:23:44.492Z,94857.00
2024-03-06T12:24:43.694Z,94859.00
2024-03-06T12:25:51.699Z,94857.00
2024-03-06T12:26:44.569Z,94855.00
2024-03-06T12:27:43.536Z,94853.00
2024-03-06T12:28:43.563Z,94856.00
2024-03-06T12:29:44.429Z,94854.00
2024-03-06T12:30:43.560Z,94855.00
2024-03-06T12:31:44.076Z,94855.00
2024-03-06T12:32:43.657Z,94854.00
2024-03-06T12:33:43.570Z,94857.00
2024-03-06T12:34:43.512Z,94853.00
2024-03-06T12:35:43.599Z,94853.00
2024-03-06T12:36:43.536Z,94854.00
2024-03-06T12:37:43.545Z,94858.00
2024-03-06T12:38:43.632Z,94856.00
2024-03-06T12:39:44.097Z,94857.00
2024-03-06T12:40:43.524Z,94857.00
2024-03-06T12:41:43.564Z,94855.00
2024-03-06T12:42:43.556Z,94856.00